createdAt,value
2017-10-08T00:01:59.833Z,72.80
2017-10-08T00:04:26.475Z,72.80
2017-10-08T00:06:53.523Z,72.80
2017-10-08T00:09:20.189Z,72.80
2017-10-08T00:11:46.842Z,72.80
2017-10-08T00:14:13.509Z,72.90
2017-10-08T00:16:40.163Z,72.90
2017-10-08T00:19:06.858Z,73.00
2017-10-08T00:21:33.510Z,72.90
2017-10-08T00:24:00.202Z,73.00
2017-10-08T00:26:26.838Z,73.10
2017-10-08T00:28:53.482Z,73.10
2017-10-08T00:31:20.163Z,73.10
2017-10-08T00:33:46.801Z,73.10
2017-10-08T00:36:13.473Z,73.10
2017-10-08T00:38:40.126Z,73.10
2017-10-08T00:41:06.798Z,73.20
2017-10-08T00:43:33.833Z,73.10
2017-10-08T00:46:00.511Z,73.10
2017-10-08T00:48:27.163Z,73.10
2017-10-08T00:50:53.808Z,73.10
2017-10-08T00:53:20.497Z,73.10
2017-10-08T00:55:47.140Z,73.20
2017-10-08T00:58:13.809Z,73.20
2017-10-08T01:00:40.457Z,73.20
2017-10-08T01:03:07.126Z,73.20
2017-10-08T01:05:33.761Z,73.20
2017-10-08T01:08:00.433Z,73.30
2017-10-08T01:10:27.070Z,73.20
2017-10-08T01:12:53.717Z,73.30
2017-10-08T01:15:20.398Z,73.30
2017-10-08T01:17:47.045Z,73.40
2017-10-08T01:20:13.705Z,73.30
2017-10-08T01:22:40.374Z,73.40
2017-10-08T01:25:07.046Z,73.40
2017-10-08T01:27:33.685Z,73.50
2017-10-08T01:30:00.365Z,73.40
2017-10-08T01:32:27.011Z,73.40
2017-10-08T01:34:53.653Z,73.40
2017-10-08T01:37:20.321Z,73.50
2017-10-08T01:39:46.971Z,73.50
2017-10-08T01:42:14.042Z,73.50
2017-10-08T01:44:40.689Z,73.50
2017-10-08T01:47:07.357Z,73.60
2017-10-08T01:49:34.010Z,73.90
2017-10-08T01:52:10.923Z,73.70
2017-10-08T01:54:37.569Z,73.70
2017-10-08T01:57:04.637Z,74.10
2017-10-08T01:59:31.272Z,74.10
2017-10-08T02:01:57.913Z,74.00
2017-10-08T02:04:24.582Z,74.00
2017-10-08T02:06:51.233Z,74.10
2017-10-08T02:09:17.933Z,74.00
2017-10-08T02:11:44.576Z,74.00
2017-10-08T02:14:11.245Z,74.00
2017-10-08T02:16:37.885Z,74.00
2017-10-08T02:19:04.561Z,74.00
2017-10-08T02:24:20.712Z,74.00
2017-10-08T02:26:47.357Z,74.20
2017-10-08T02:29:13.993Z,74.60
2017-10-08T02:31:40.661Z,74.40
2017-10-08T02:34:07.302Z,74.50
2017-10-08T02:36:33.969Z,74.50
2017-10-08T02:39:00.618Z,74.50
2017-10-08T02:41:27.285Z,74.40
2017-10-08T02:43:54.622Z,74.90
2017-10-08T02:46:21.692Z,74.60
2017-10-08T02:48:48.329Z,74.60
2017-10-08T02:51:14.973Z,74.40
2017-10-08T02:53:41.649Z,74.70
2017-10-08T02:56:08.289Z,74.70
2017-10-08T02:58:34.953Z,74.60
2017-10-08T03:01:01.601Z,74.70
2017-10-08T03:03:28.261Z,74.90
2017-10-08T03:05:55.298Z,75.00
2017-10-08T03:08:21.975Z,75.00
2017-10-08T03:10:48.621Z,75.10
2017-10-08T03:13:15.269Z,75.00
2017-10-08T03:15:41.945Z,74.80
2017-10-08T03:18:08.597Z,74.80
2017-10-08T03:20:35.262Z,74.80
2017-10-08T03:23:01.907Z,74.90
2017-10-08T03:25:28.565Z,75.00
2017-10-08T03:27:55.203Z,75.20
2017-10-08T03:30:21.867Z,75.00
2017-10-08T03:32:48.505Z,75.10
2017-10-08T03:35:15.178Z,75.30
2017-10-08T03:37:41.813Z,75.30
2017-10-08T03:40:08.454Z,75.40
2017-10-08T03:42:35.128Z,75.30
2017-10-08T03:45:01.774Z,75.40
2017-10-08T03:47:28.442Z,75.20
2017-10-08T03:49:55.089Z,75.50
2017-10-08T03:52:21.755Z,75.40
2017-10-08T03:54:48.397Z,75.40
2017-10-08T03:57:15.066Z,75.40
2017-10-08T03:59:41.706Z,75.40
2017-10-08T04:02:08.386Z,75.30
2017-10-08T04:04:35.461Z,75.50
2017-10-08T04:07:02.106Z,75.20
2017-10-08T04:09:28.773Z,75.40
2017-10-08T04:11:55.443Z,75.50
2017-10-08T04:14:22.109Z,75.40
2017-10-08T04:16:48.749Z,75.40
2017-10-08T04:19:15.404Z,75.40
2017-10-08T04:21:42.042Z,75.30
2017-10-08T04:24:08.717Z,75.50
2017-10-08T04:26:35.357Z,75.30
2017-10-08T04:29:02.026Z,75.30
2017-10-08T04:31:28.673Z,75.40
2017-10-08T04:33:55.310Z,75.40
2017-10-08T04:36:21.977Z,75.30
2017-10-08T04:38:48.629Z,75.40
2017-10-08T04:41:15.290Z,75.30
2017-10-08T04:43:42.354Z,75.40
2017-10-08T04:46:09.020Z,75.50
2017-10-08T04:48:35.661Z,75.50
2017-10-08T04:51:02.338Z,75.40
2017-10-08T04:53:28.981Z,75.50
2017-10-08T04:55:55.622Z,75.60
2017-10-08T04:58:23.054Z,75.50
2017-10-08T05:00:49.693Z,75.50
2017-10-08T05:03:16.353Z,75.50
2017-10-08T05:05:43.021Z,75.50
2017-10-08T05:08:10.461Z,75.40
2017-10-08T05:10:37.509Z,75.50
2017-10-08T05:13:04.201Z,75.50
2017-10-08T05:15:30.881Z,75.70
2017-10-08T05:17:57.525Z,75.70
2017-10-08T05:20:24.194Z,75.80
2017-10-08T05:22:50.840Z,75.90
2017-10-08T05:25:17.907Z,75.80
2017-10-08T05:27:44.650Z,76.10
2017-10-08T05:30:11.880Z,76.10
2017-10-08T05:32:38.527Z,76.30
2017-10-08T05:35:05.200Z,76.30
2017-10-08T05:37:31.846Z,76.10
2017-10-08T05:39:58.489Z,76.10
2017-10-08T05:42:25.149Z,76.40
2017-10-08T05:44:51.786Z,76.60
2017-10-08T05:47:18.461Z,76.40
2017-10-08T05:49:45.105Z,76.50
2017-10-08T05:52:12.193Z,76.60
2017-10-08T05:54:38.838Z,76.50
2017-10-08T05:57:05.501Z,76.30
2017-10-08T05:59:32.178Z,76.10
2017-10-08T06:01:58.823Z,76.50
2017-10-08T06:04:25.508Z,76.30
2017-10-08T06:06:52.166Z,76.40
2017-10-08T06:09:18.831Z,76.60
2017-10-08T06:11:45.467Z,76.40
2017-10-08T06:14:12.135Z,76.30
2017-10-08T06:16:38.782Z,76.50
2017-10-08T06:19:05.424Z,76.60
2017-10-08T06:24:21.133Z,76.60
2017-10-08T06:26:47.779Z,76.60
2017-10-08T06:29:14.421Z,76.60
2017-10-08T06:31:41.093Z,76.80
2017-10-08T06:34:07.729Z,76.80
2017-10-08T06:36:34.398Z,76.60
2017-10-08T06:39:01.043Z,76.70
2017-10-08T06:41:27.717Z,76.70
2017-10-08T06:43:54.358Z,77.10
2017-10-08T06:46:21.006Z,76.90
2017-10-08T06:48:47.674Z,77.00
2017-10-08T06:51:14.313Z,76.90
2017-10-08T06:53:40.986Z,76.90
2017-10-08T06:56:07.627Z,76.90
2017-10-08T06:58:34.294Z,76.80
2017-10-08T07:01:00.942Z,77.00
2017-10-08T07:03:27.573Z,77.20
2017-10-08T07:05:54.247Z,77.20
2017-10-08T07:08:20.896Z,77.30
2017-10-08T07:10:47.559Z,77.10
2017-10-08T07:13:14.205Z,77.10
2017-10-08T07:15:40.885Z,77.00
2017-10-08T07:18:07.525Z,77.10
2017-10-08T07:20:34.917Z,77.10
2017-10-08T07:23:02.297Z,77.00
2017-10-08T07:25:28.965Z,77.30
2017-10-08T07:27:55.650Z,77.30
2017-10-08T07:30:22.289Z,77.20
2017-10-08T07:32:48.966Z,77.10
2017-10-08T07:35:15.605Z,77.30
2017-10-08T07:37:42.265Z,77.20
2017-10-08T07:40:08.915Z,77.30
2017-10-08T07:42:35.594Z,77.10
2017-10-08T07:45:02.473Z,77.30
2017-10-08T07:47:29.113Z,77.20
2017-10-08T07:49:55.774Z,77.20
2017-10-08T07:52:22.737Z,77.10
2017-10-08T07:54:49.405Z,76.90
2017-10-08T07:57:16.049Z,77.00
2017-10-08T07:59:42.716Z,77.10
2017-10-08T08:02:09.362Z,77.30
2017-10-08T08:04:36.034Z,77.20
2017-10-08T08:07:02.665Z,77.10
2017-10-08T08:09:29.345Z,77.20
2017-10-08T08:11:55.981Z,77.20
2017-10-08T08:14:22.629Z,77.30
2017-10-08T08:16:49.685Z,77.40
2017-10-08T08:19:16.709Z,77.50
2017-10-08T08:21:43.374Z,77.30
2017-10-08T08:24:11.509Z,77.60
2017-10-08T08:26:38.178Z,77.60
2017-10-08T08:29:04.822Z,77.40
2017-10-08T08:31:31.485Z,77.40
2017-10-08T08:33:58.119Z,77.40
2017-10-08T08:36:25.205Z,77.60
2017-10-08T08:38:51.846Z,77.60
2017-10-08T08:41:18.494Z,77.50
2017-10-08T08:43:45.160Z,77.60
2017-10-08T08:46:11.803Z,77.60
2017-10-08T08:48:38.477Z,77.50
2017-10-08T08:51:05.115Z,77.50
2017-10-08T08:53:31.777Z,77.50
2017-10-08T08:55:58.425Z,77.50
2017-10-08T08:58:25.112Z,77.50
2017-10-08T09:00:51.745Z,77.40
2017-10-08T09:03:18.382Z,77.50
2017-10-08T09:05:45.045Z,77.50
2017-10-08T09:08:12.068Z,77.40
2017-10-08T09:10:38.757Z,77.40
2017-10-08T09:13:05.394Z,77.60
2017-10-08T09:15:32.057Z,77.50
2017-10-08T09:17:59.101Z,77.60
2017-10-08T09:20:25.762Z,77.60
2017-10-08T09:22:52.411Z,77.40
2017-10-08T09:25:19.112Z,77.40
2017-10-08T09:27:45.753Z,77.50
2017-10-08T09:30:12.392Z,77.50
2017-10-08T09:32:39.066Z,77.60
2017-10-08T09:35:05.705Z,77.60
2017-10-08T09:37:32.360Z,77.50
2017-10-08T09:39:59.000Z,77.50
2017-10-08T09:42:26.066Z,77.30
2017-10-08T09:44:53.106Z,77.50
2017-10-08T09:47:19.769Z,77.50
2017-10-08T09:49:46.453Z,77.60
2017-10-08T09:52:16.847Z,77.50
2017-10-08T09:54:43.705Z,77.50
2017-10-08T09:57:10.342Z,77.60
2017-10-08T09:59:37.009Z,77.60
2017-10-08T10:02:03.656Z,77.70
2017-10-08T10:04:30.330Z,77.70
2017-10-08T10:06:57.366Z,77.80
2017-10-08T10:09:24.041Z,77.80
2017-10-08T10:11:50.686Z,77.80
2017-10-08T10:14:17.357Z,77.60
2017-10-08T10:16:43.999Z,77.60
2017-10-08T10:19:10.639Z,77.60
2017-10-08T10:21:37.313Z,77.60
2017-10-08T10:24:03.957Z,77.70
2017-10-08T10:26:30.875Z,77.70
2017-10-08T10:28:57.517Z,77.50
2017-10-08T10:31:24.214Z,77.50
2017-10-08T10:33:50.852Z,77.50
2017-10-08T10:36:17.524Z,77.50
2017-10-08T10:38:44.785Z,77.40
2017-10-08T10:41:11.429Z,77.40
2017-10-08T10:43:38.122Z,77.50
2017-10-08T10:46:04.767Z,77.50
2017-10-08T10:48:31.429Z,77.50
2017-10-08T10:50:58.062Z,77.40
2017-10-08T10:53:24.730Z,77.30
2017-10-08T10:55:51.373Z,77.20
2017-10-08T10:58:18.039Z,77.20
2017-10-08T11:00:45.084Z,76.70
2017-10-08T11:03:11.728Z,76.60
2017-10-08T11:05:38.403Z,76.50
2017-10-08T11:08:05.042Z,76.50
2017-10-08T11:10:31.720Z,76.50
2017-10-08T11:12:58.365Z,76.40
2017-10-08T11:15:25.025Z,76.20
2017-10-08T11:17:51.665Z,76.20
2017-10-08T11:20:18.336Z,76.10
2017-10-08T11:22:44.979Z,76.00
2017-10-08T11:25:12.542Z,75.90
2017-10-08T11:27:39.211Z,75.90
2017-10-08T11:30:05.857Z,75.90
2017-10-08T11:32:32.525Z,76.10
2017-10-08T11:34:59.165Z,76.00
2017-10-08T11:37:25.838Z,76.00
2017-10-08T11:39:52.517Z,75.90
2017-10-08T11:42:19.198Z,75.80
2017-10-08T11:44:46.230Z,75.70
2017-10-08T11:47:12.877Z,75.70
2017-10-08T11:49:39.541Z,75.90
2017-10-08T11:52:16.398Z,75.80
2017-10-08T11:54:43.063Z,75.90
2017-10-08T11:57:09.710Z,75.80
2017-10-08T11:59:36.373Z,75.60
2017-10-08T12:02:03.014Z,75.40
2017-10-08T12:04:29.679Z,75.40
2017-10-08T12:06:56.317Z,75.60
2017-10-08T12:09:22.979Z,75.50
2017-10-08T12:11:49.618Z,75.30
2017-10-08T12:14:16.295Z,75.20
2017-10-08T12:16:42.942Z,75.30
2017-10-08T12:19:09.577Z,75.10
2017-10-08T12:21:36.806Z,75.30
2017-10-08T12:24:03.846Z,75.40
2017-10-08T12:26:30.906Z,75.50
2017-10-08T12:28:57.944Z,75.30
2017-10-08T12:31:24.613Z,75.30
2017-10-08T12:33:51.254Z,75.30
2017-10-08T12:36:17.917Z,75.10
2017-10-08T12:38:44.565Z,75.00
2017-10-08T12:41:11.229Z,74.70
2017-10-08T12:43:37.872Z,74.90
2017-10-08T12:46:04.559Z,75.00
2017-10-08T12:48:31.778Z,74.90
2017-10-08T12:50:58.460Z,74.80
2017-10-08T12:53:25.118Z,74.70
2017-10-08T12:55:51.753Z,75.00
2017-10-08T12:58:18.434Z,74.90
2017-10-08T13:00:45.074Z,75.10
2017-10-08T13:03:11.785Z,74.80
2017-10-08T13:05:38.417Z,74.80
2017-10-08T13:08:05.082Z,74.70
2017-10-08T13:10:31.741Z,74.40
2017-10-08T13:12:58.404Z,74.70
2017-10-08T13:15:25.033Z,74.70
2017-10-08T13:17:52.605Z,74.60
2017-10-08T13:20:19.268Z,74.60
2017-10-08T13:22:45.910Z,74.20
2017-10-08T13:25:12.576Z,74.10
2017-10-08T13:27:39.209Z,74.10
2017-10-08T13:30:05.885Z,74.10
2017-10-08T13:32:32.525Z,74.20
2017-10-08T13:34:59.598Z,74.00
2017-10-08T13:37:26.233Z,74.00
2017-10-08T13:39:52.894Z,74.00
2017-10-08T13:42:19.538Z,73.50
2017-10-08T13:44:46.205Z,73.70
2017-10-08T13:47:12.845Z,73.60
2017-10-08T13:49:39.514Z,74.00
2017-10-08T13:52:16.361Z,73.70
2017-10-08T13:54:43.027Z,73.60
2017-10-08T13:57:09.670Z,73.60
2017-10-08T13:59:36.653Z,73.80
2017-10-08T14:02:03.288Z,73.80
2017-10-08T14:04:29.962Z,74.00
2017-10-08T14:06:56.600Z,73.80
2017-10-08T14:09:23.241Z,73.20
2017-10-08T14:11:49.923Z,73.50
2017-10-08T14:14:16.557Z,73.40
2017-10-08T14:16:43.232Z,73.20
2017-10-08T14:19:09.882Z,73.20
2017-10-08T14:24:26.688Z,73.30
2017-10-08T14:26:53.750Z,73.30
2017-10-08T14:29:20.390Z,73.30
2017-10-08T14:31:47.029Z,73.00
2017-10-08T14:34:14.461Z,73.20
2017-10-08T14:36:41.101Z,73.40
2017-10-08T14:39:07.822Z,72.90
2017-10-08T14:41:34.471Z,72.60
2017-10-08T14:44:01.119Z,72.70
2017-10-08T14:46:27.790Z,72.50
2017-10-08T14:48:55.002Z,72.40
2017-10-08T14:54:10.437Z,72.70
2017-10-08T14:56:37.101Z,72.70
2017-10-08T14:59:03.755Z,72.40
2017-10-08T15:01:30.447Z,72.20
2017-10-08T15:03:57.481Z,72.60
2017-10-08T15:06:24.121Z,72.60
2017-10-08T15:08:50.787Z,72.30
2017-10-08T15:11:17.426Z,72.70
2017-10-08T15:13:44.095Z,72.40
2017-10-08T15:16:10.741Z,72.10
2017-10-08T15:18:37.420Z,72.10
2017-10-08T15:21:04.056Z,71.40
2017-10-08T15:23:30.742Z,71.40
2017-10-08T15:25:57.881Z,71.50
2017-10-08T15:28:24.529Z,71.70
2017-10-08T15:30:51.197Z,71.40
2017-10-08T15:33:17.834Z,71.20
2017-10-08T15:35:44.510Z,71.00
2017-10-08T15:38:11.164Z,71.30
2017-10-08T15:40:37.866Z,71.20
2017-10-08T15:43:04.506Z,71.90
2017-10-08T15:45:31.217Z,71.70
2017-10-08T15:47:57.892Z,71.30
2017-10-08T15:50:24.534Z,71.50
2017-10-08T15:52:51.250Z,71.20
2017-10-08T15:55:17.906Z,71.20
2017-10-08T15:57:44.585Z,71.20
2017-10-08T16:00:11.860Z,70.80
2017-10-08T16:02:38.493Z,70.80
2017-10-08T16:05:05.594Z,70.60
2017-10-08T16:07:32.224Z,70.60
2017-10-08T16:09:58.905Z,70.70
2017-10-08T16:12:26.187Z,70.90
2017-10-08T16:14:52.845Z,71.10
2017-10-08T16:17:19.503Z,71.10
2017-10-08T16:19:46.173Z,70.90
2017-10-08T16:22:22.627Z,70.70
2017-10-08T16:24:49.317Z,70.80
2017-10-08T16:27:15.958Z,71.00
2017-10-08T16:29:42.604Z,71.20
2017-10-08T16:32:09.285Z,71.10
2017-10-08T16:34:35.926Z,71.10
2017-10-08T16:37:02.593Z,71.00
2017-10-08T16:39:29.229Z,70.80
2017-10-08T16:41:55.906Z,71.00
2017-10-08T16:44:22.546Z,71.30
2017-10-08T16:46:49.249Z,71.50
2017-10-08T16:49:15.945Z,71.30
2017-10-08T16:54:31.489Z,71.10
2017-10-08T16:56:58.134Z,71.30
2017-10-08T16:59:24.807Z,71.40
2017-10-08T17:01:51.459Z,71.60
2017-10-08T17:04:18.125Z,71.50
2017-10-08T17:06:44.767Z,71.20
2017-10-08T17:09:11.434Z,71.20
2017-10-08T17:11:38.086Z,71.30
2017-10-08T17:14:04.766Z,71.50
2017-10-08T17:16:31.406Z,71.40
2017-10-08T17:18:58.400Z,71.20
2017-10-08T17:24:14.350Z,71.00
2017-10-08T17:26:40.988Z,71.10
2017-10-08T17:29:07.622Z,70.90
2017-10-08T17:31:34.292Z,71.20
2017-10-08T17:34:00.933Z,71.60
2017-10-08T17:36:27.599Z,71.90
2017-10-08T17:38:54.263Z,72.20
2017-10-08T17:41:20.929Z,72.30
2017-10-08T17:43:47.769Z,72.40
2017-10-08T17:46:14.429Z,72.60
2017-10-08T17:48:41.077Z,72.70
2017-10-08T17:51:07.714Z,72.70
2017-10-08T17:53:34.777Z,72.80
2017-10-08T17:56:01.408Z,72.80
2017-10-08T17:58:28.093Z,72.80
2017-10-08T18:00:54.743Z,72.80
2017-10-08T18:03:21.427Z,72.90
2017-10-08T18:05:48.071Z,72.80
2017-10-08T18:08:14.721Z,72.80
2017-10-08T18:10:41.396Z,72.80
2017-10-08T18:13:08.030Z,72.70
2017-10-08T18:15:34.707Z,72.70
2017-10-08T18:18:01.347Z,72.70
2017-10-08T18:20:28.029Z,72.70
2017-10-08T18:22:54.759Z,72.80
2017-10-08T18:25:21.425Z,72.70
2017-10-08T18:27:48.120Z,72.70
2017-10-08T18:30:14.753Z,72.80
2017-10-08T18:32:41.423Z,72.70
2017-10-08T18:35:08.065Z,72.70
2017-10-08T18:37:34.730Z,72.80
2017-10-08T18:40:01.383Z,72.80
2017-10-08T18:42:28.056Z,72.80
2017-10-08T18:44:54.694Z,72.70
2017-10-08T18:47:21.329Z,72.70
2017-10-08T18:49:47.997Z,72.70
2017-10-08T18:52:25.015Z,72.80
2017-10-08T18:54:51.721Z,72.70
2017-10-08T18:57:18.361Z,72.70
2017-10-08T18:59:45.040Z,72.70
2017-10-08T19:02:11.689Z,72.70
2017-10-08T19:04:38.358Z,72.70
2017-10-08T19:07:05.001Z,72.70
2017-10-08T19:09:31.681Z,72.70
2017-10-08T19:11:58.317Z,72.80
2017-10-08T19:14:24.954Z,72.70
2017-10-08T19:16:51.658Z,72.70
2017-10-08T19:19:18.749Z,72.70
2017-10-08T19:21:45.422Z,72.60
2017-10-08T19:24:12.062Z,72.60
2017-10-08T19:26:39.135Z,72.60
2017-10-08T19:29:05.798Z,72.60
2017-10-08T19:31:32.913Z,72.50
2017-10-08T19:34:00.042Z,72.50
2017-10-08T19:36:26.686Z,72.50
2017-10-08T19:38:54.260Z,72.50
2017-10-08T19:41:21.293Z,72.40
2017-10-08T19:43:47.966Z,72.50
2017-10-08T19:46:14.597Z,72.40
2017-10-08T19:48:41.657Z,72.30
2017-10-08T19:51:08.290Z,72.30
2017-10-08T19:53:35.325Z,72.30
2017-10-08T19:56:02.381Z,72.20
2017-10-08T19:58:29.422Z,72.20
2017-10-08T20:00:56.496Z,72.20
2017-10-08T20:03:23.133Z,72.20
2017-10-08T20:05:49.816Z,72.20
2017-10-08T20:08:16.452Z,72.20
2017-10-08T20:10:43.089Z,72.20
2017-10-08T20:13:09.753Z,72.10
2017-10-08T20:15:36.405Z,72.10
2017-10-08T20:18:03.065Z,72.10
2017-10-08T20:20:30.093Z,72.00
2017-10-08T20:22:56.757Z,72.00
2017-10-08T20:25:23.793Z,71.90
2017-10-08T20:27:50.863Z,71.80
2017-10-08T20:30:17.505Z,71.90
2017-10-08T20:32:44.185Z,71.90
2017-10-08T20:35:10.826Z,71.90
2017-10-08T20:37:37.462Z,71.90
2017-10-08T20:40:04.129Z,71.80
2017-10-08T20:42:30.781Z,71.80
2017-10-08T20:44:57.447Z,71.80
2017-10-08T20:47:24.661Z,71.80
2017-10-08T20:49:51.342Z,71.70
2017-10-08T20:52:24.089Z,71.60
2017-10-08T20:54:50.749Z,71.40
2017-10-08T20:57:17.789Z,71.30
2017-10-08T20:59:45.268Z,71.20
2017-10-08T21:02:11.914Z,71.30
2017-10-08T21:04:38.558Z,71.20
2017-10-08T21:07:05.230Z,71.30
2017-10-08T21:09:31.886Z,71.00
2017-10-08T21:11:58.553Z,71.20
2017-10-08T21:14:25.198Z,70.90
2017-10-08T21:16:51.886Z,71.10
2017-10-08T21:19:18.526Z,71.00
2017-10-08T21:21:45.200Z,71.00
2017-10-08T21:24:11.851Z,70.90
2017-10-08T21:26:38.548Z,70.80
2017-10-08T21:29:05.185Z,71.00
2017-10-08T21:31:31.830Z,70.80
2017-10-08T21:33:58.518Z,70.80
2017-10-08T21:36:25.161Z,70.60
2017-10-08T21:38:52.225Z,70.70
2017-10-08T21:41:18.856Z,70.70
2017-10-08T21:43:45.905Z,70.60
2017-10-08T21:46:12.938Z,70.70
2017-10-08T21:48:40.008Z,70.50
2017-10-08T21:51:06.655Z,70.50
2017-10-08T21:53:33.324Z,70.40
2017-10-08T21:55:59.993Z,70.20
2017-10-08T21:58:26.645Z,70.50
2017-10-08T22:00:53.934Z,70.20
2017-10-08T22:03:20.578Z,70.40
2017-10-08T22:05:47.241Z,70.40
2017-10-08T22:08:13.881Z,70.30
2017-10-08T22:10:40.558Z,70.20
2017-10-08T22:13:07.202Z,70.20
2017-10-08T22:15:33.873Z,70.00
2017-10-08T22:18:00.509Z,70.10
2017-10-08T22:20:27.152Z,70.20
2017-10-08T22:22:53.829Z,70.10
2017-10-08T22:25:20.522Z,70.10
2017-10-08T22:27:47.186Z,69.80
2017-10-08T22:30:13.841Z,70.20
2017-10-08T22:32:40.539Z,70.10
2017-10-08T22:35:07.578Z,69.70
2017-10-08T22:37:34.650Z,69.80
2017-10-08T22:40:01.291Z,69.80
2017-10-08T22:42:27.935Z,69.80
2017-10-08T22:44:54.637Z,69.70
2017-10-08T22:47:21.280Z,69.60
2017-10-08T22:49:47.954Z,69.60
2017-10-08T22:52:14.602Z,69.60
2017-10-08T22:54:41.266Z,69.80
2017-10-08T22:57:07.901Z,69.70
2017-10-08T22:59:34.579Z,69.50
2017-10-08T23:02:01.222Z,69.60
2017-10-08T23:04:27.867Z,69.40
2017-10-08T23:06:54.536Z,69.50
2017-10-08T23:09:21.169Z,69.50
2017-10-08T23:11:47.834Z,69.30
2017-10-08T23:14:14.474Z,69.40
2017-10-08T23:16:41.153Z,69.40
2017-10-08T23:19:07.804Z,69.30
2017-10-08T23:21:34.549Z,69.20
2017-10-08T23:24:01.193Z,69.30
2017-10-08T23:26:28.234Z,69.30
2017-10-08T23:28:54.905Z,69.30
2017-10-08T23:31:21.546Z,69.30
2017-10-08T23:33:48.217Z,69.10
2017-10-08T23:36:14.857Z,69.20
2017-10-08T23:38:41.528Z,69.30
2017-10-08T23:41:08.169Z,69.10
2017-10-08T23:43:34.862Z,69.10
2017-10-08T23:46:01.497Z,69.10
2017-10-08T23:48:28.130Z,69.20
2017-10-08T23:50:55.473Z,69.20
2017-10-08T23:53:22.562Z,69.00
2017-10-08T23:55:49.238Z,69.00
2017-10-08T23:58:15.886Z,69.20
